sensor_id;sensor_type;location;lat;lon;timestamp;temperature;humidity
71563;DHT22;59391;52.504;13.438;2023-06-01T00:01:58;22.00;38.00
71563;DHT22;59391;52.504;13.438;2023-06-01T00:04:24;21.90;38.30
71563;DHT22;59391;52.504;13.438;2023-06-01T00:06:50;21.80;38.50
71563;DHT22;59391;52.504;13.438;2023-06-01T00:09:16;21.80;38.60
71563;DHT22;59391;52.504;13.438;2023-06-01T00:11:42;21.80;38.90
71563;DHT22;59391;52.504;13.438;2023-06-01T00:14:08;21.70;39.10
71563;DHT22;59391;52.504;13.438;2023-06-01T00:16:34;21.60;39.10
71563;DHT22;59391;52.504;13.438;2023-06-01T00:18:59;21.60;39.50
71563;DHT22;59391;52.504;13.438;2023-06-01T00:21:29;21.50;39.50
71563;DHT22;59391;52.504;13.438;2023-06-01T00:24:00;21.50;39.60
71563;DHT22;59391;52.504;13.438;2023-06-01T00:26:27;21.40;39.70
71563;DHT22;59391;52.504;13.438;2023-06-01T00:28:52;21.40;39.70
71563;DHT22;59391;52.504;13.438;2023-06-01T00:31:21;21.30;40.30
71563;DHT22;59391;52.504;13.438;2023-06-01T00:33:47;21.30;40.10
71563;DHT22;59391;52.504;13.438;2023-06-01T00:36:12;21.20;40.40
71563;DHT22;59391;52.504;13.438;2023-06-01T00:38:38;21.20;40.40
71563;DHT22;59391;52.504;13.438;2023-06-01T00:41:04;21.20;40.50
71563;DHT22;59391;52.504;13.438;2023-06-01T00:43:29;21.10;40.60
71563;DHT22;59391;52.504;13.438;2023-06-01T00:45:55;21.10;40.80
71563;DHT22;59391;52.504;13.438;2023-06-01T00:48:21;21.10;40.90
71563;DHT22;59391;52.504;13.438;2023-06-01T00:50:48;21.00;41.10
71563;DHT22;59391;52.504;13.438;2023-06-01T00:53:18;21.00;40.90
71563;DHT22;59391;52.504;13.438;2023-06-01T00:55:46;21.00;41.20
71563;DHT22;59391;52.504;13.438;2023-06-01T00:58:15;20.90;41.50
71563;DHT22;59391;52.504;13.438;2023-06-01T01:00:41;20.90;41.70
71563;DHT22;59391;52.504;13.438;2023-06-01T01:03:07;20.90;41.70
71563;DHT22;59391;52.504;13.438;2023-06-01T01:05:35;20.80;42.10
71563;DHT22;59391;52.504;13.438;2023-06-01T01:08:36;20.80;42.20
71563;DHT22;59391;52.504;13.438;2023-06-01T01:11:18;20.70;42.30
71563;DHT22;59391;52.504;13.438;2023-06-01T01:13:55;20.70;42.60
71563;DHT22;59391;52.504;13.438;2023-06-01T01:16:29;20.60;42.60
71563;DHT22;59391;52.504;13.438;2023-06-01T01:25:20;20.50;43.20
71563;DHT22;59391;52.504;13.438;2023-06-01T01:31:15;20.40;43.70
71563;DHT22;59391;52.504;13.438;2023-06-01T01:33:44;20.30;43.70
71563;DHT22;59391;52.504;13.438;2023-06-01T01:36:12;20.30;43.90
71563;DHT22;59391;52.504;13.438;2023-06-01T01:38:38;20.20;44.20
71563;DHT22;59391;52.504;13.438;2023-06-01T01:41:04;20.10;44.40
71563;DHT22;59391;52.504;13.438;2023-06-01T01:43:30;20.10;44.50
71563;DHT22;59391;52.504;13.438;2023-06-01T01:46:05;20.00;44.60
71563;DHT22;59391;52.504;13.438;2023-06-01T01:48:44;20.00;44.90
71563;DHT22;59391;52.504;13.438;2023-06-01T01:51:15;19.90;44.90
71563;DHT22;59391;52.504;13.438;2023-06-01T01:53:46;19.90;44.80
71563;DHT22;59391;52.504;13.438;2023-06-01T01:56:14;19.90;45.00
71563;DHT22;59391;52.504;13.438;2023-06-01T01:58:41;19.80;44.90
71563;DHT22;59391;52.504;13.438;2023-06-01T02:01:08;19.80;45.20
71563;DHT22;59391;52.504;13.438;2023-06-01T02:03:34;19.70;45.40
71563;DHT22;59391;52.504;13.438;2023-06-01T02:06:00;19.70;45.60
71563;DHT22;59391;52.504;13.438;2023-06-01T02:08:25;19.60;45.60
71563;DHT22;59391;52.504;13.438;2023-06-01T02:10:51;19.60;45.90
71563;DHT22;59391;52.504;13.438;2023-06-01T02:13:16;19.50;46.20
71563;DHT22;59391;52.504;13.438;2023-06-01T02:15:42;19.50;46.50
71563;DHT22;59391;52.504;13.438;2023-06-01T02:18:08;19.40;46.40
71563;DHT22;59391;52.504;13.438;2023-06-01T02:20:33;19.30;46.70
71563;DHT22;59391;52.504;13.438;2023-06-01T02:22:59;19.30;46.90
71563;DHT22;59391;52.504;13.438;2023-06-01T02:25:25;19.20;46.80
71563;DHT22;59391;52.504;13.438;2023-06-01T02:27:50;19.20;47.00
71563;DHT22;59391;52.504;13.438;2023-06-01T02:30:16;19.20;47.20
71563;DHT22;59391;52.504;13.438;2023-06-01T02:32:41;19.10;47.30
71563;DHT22;59391;52.504;13.438;2023-06-01T02:35:10;19.00;47.30
71563;DHT22;59391;52.504;13.438;2023-06-01T02:37:36;19.00;47.60
71563;DHT22;59391;52.504;13.438;2023-06-01T02:40:01;18.90;47.60
71563;DHT22;59391;52.504;13.438;2023-06-01T02:42:28;18.90;47.60
71563;DHT22;59391;52.504;13.438;2023-06-01T02:44:54;18.80;47.80
71563;DHT22;59391;52.504;13.438;2023-06-01T02:47:19;18.80;48.10
71563;DHT22;59391;52.504;13.438;2023-06-01T02:49:45;18.70;48.70
71563;DHT22;59391;52.504;13.438;2023-06-01T02:52:11;18.60;49.10
71563;DHT22;59391;52.504;13.438;2023-06-01T02:54:36;18.50;49.20
71563;DHT22;59391;52.504;13.438;2023-06-01T02:57:02;18.40;49.40
71563;DHT22;59391;52.504;13.438;2023-06-01T02:59:27;18.40;49.40
71563;DHT22;59391;52.504;13.438;2023-06-01T03:01:53;18.30;49.70
71563;DHT22;59391;52.504;13.438;2023-06-01T03:04:19;18.30;49.70
71563;DHT22;59391;52.504;13.438;2023-06-01T03:06:45;18.20;49.80
71563;DHT22;59391;52.504;13.438;2023-06-01T03:09:11;18.20;49.90
71563;DHT22;59391;52.504;13.438;2023-06-01T03:11:41;18.20;50.00
71563;DHT22;59391;52.504;13.438;2023-06-01T03:14:08;18.10;50.30
71563;DHT22;59391;52.504;13.438;2023-06-01T03:16:33;18.00;50.60
71563;DHT22;59391;52.504;13.438;2023-06-01T03:19:00;18.00;50.90
71563;DHT22;59391;52.504;13.438;2023-06-01T03:21:26;17.90;51.20
71563;DHT22;59391;52.504;13.438;2023-06-01T03:23:52;17.90;51.30
71563;DHT22;59391;52.504;13.438;2023-06-01T03:26:18;17.80;51.50
71563;DHT22;59391;52.504;13.438;2023-06-01T03:28:46;17.80;51.70
71563;DHT22;59391;52.504;13.438;2023-06-01T03:31:12;17.70;52.20
71563;DHT22;59391;52.504;13.438;2023-06-01T03:33:38;17.60;52.30
71563;DHT22;59391;52.504;13.438;2023-06-01T03:36:04;17.60;52.30
71563;DHT22;59391;52.504;13.438;2023-06-01T03:38:32;17.50;52.50
71563;DHT22;59391;52.504;13.438;2023-06-01T03:40:58;17.40;53.00
71563;DHT22;59391;52.504;13.438;2023-06-01T03:43:23;17.40;53.30
71563;DHT22;59391;52.504;13.438;2023-06-01T03:45:49;17.30;53.80
71563;DHT22;59391;52.504;13.438;2023-06-01T03:48:15;17.20;53.80
71563;DHT22;59391;52.504;13.438;2023-06-01T03:50:41;17.10;54.00
71563;DHT22;59391;52.504;13.438;2023-06-01T03:53:06;17.10;54.30
71563;DHT22;59391;52.504;13.438;2023-06-01T03:55:32;17.00;54.40
71563;DHT22;59391;52.504;13.438;2023-06-01T03:57:58;17.00;54.60
71563;DHT22;59391;52.504;13.438;2023-06-01T04:00:24;17.00;54.90
71563;DHT22;59391;52.504;13.438;2023-06-01T04:02:52;16.90;55.00
71563;DHT22;59391;52.504;13.438;2023-06-01T04:05:20;16.90;55.70
71563;DHT22;59391;52.504;13.438;2023-06-01T04:07:47;16.80;55.20
71563;DHT22;59391;52.504;13.438;2023-06-01T04:10:14;16.80;55.40
71563;DHT22;59391;52.504;13.438;2023-06-01T04:12:42;16.70;55.70
71563;DHT22;59391;52.504;13.438;2023-06-01T04:15:13;16.70;55.30
71563;DHT22;59391;52.504;13.438;2023-06-01T04:17:41;16.70;55.90
71563;DHT22;59391;52.504;13.438;2023-06-01T04:20:12;16.60;56.10
71563;DHT22;59391;52.504;13.438;2023-06-01T04:22:40;16.60;56.30
71563;DHT22;59391;52.504;13.438;2023-06-01T04:25:10;16.60;56.50
71563;DHT22;59391;52.504;13.438;2023-06-01T04:27:42;16.50;56.60
71563;DHT22;59391;52.504;13.438;2023-06-01T04:30:16;16.50;56.80
71563;DHT22;59391;52.504;13.438;2023-06-01T04:32:43;16.40;56.90
71563;DHT22;59391;52.504;13.438;2023-06-01T04:35:13;16.40;57.10
71563;DHT22;59391;52.504;13.438;2023-06-01T04:37:41;16.30;57.20
71563;DHT22;59391;52.504;13.438;2023-06-01T04:40:09;16.30;57.30
71563;DHT22;59391;52.504;13.438;2023-06-01T04:42:39;16.30;57.50
71563;DHT22;59391;52.504;13.438;2023-06-01T04:45:07;16.20;58.10
71563;DHT22;59391;52.504;13.438;2023-06-01T04:47:34;16.20;57.50
71563;DHT22;59391;52.504;13.438;2023-06-01T04:50:09;16.20;57.50
71563;DHT22;59391;52.504;13.438;2023-06-01T04:52:36;16.10;57.80
71563;DHT22;59391;52.504;13.438;2023-06-01T04:55:04;16.10;57.60
71563;DHT22;59391;52.504;13.438;2023-06-01T04:57:30;16.00;58.10
71563;DHT22;59391;52.504;13.438;2023-06-01T04:59:57;16.00;58.30
71563;DHT22;59391;52.504;13.438;2023-06-01T05:02:25;15.90;58.50
71563;DHT22;59391;52.504;13.438;2023-06-01T05:04:53;15.80;58.90
71563;DHT22;59391;52.504;13.438;2023-06-01T05:07:18;15.70;59.80
71563;DHT22;59391;52.504;13.438;2023-06-01T05:09:47;15.70;59.60
71563;DHT22;59391;52.504;13.438;2023-06-01T05:12:13;15.60;60.00
71563;DHT22;59391;52.504;13.438;2023-06-01T05:14:38;15.60;60.00
71563;DHT22;59391;52.504;13.438;2023-06-01T05:17:04;15.50;60.40
71563;DHT22;59391;52.504;13.438;2023-06-01T05:19:30;15.50;60.00
71563;DHT22;59391;52.504;13.438;2023-06-01T05:21:55;15.40;60.00
71563;DHT22;59391;52.504;13.438;2023-06-01T05:24:21;15.40;60.30
71563;DHT22;59391;52.504;13.438;2023-06-01T05:26:47;15.40;60.60
71563;DHT22;59391;52.504;13.438;2023-06-01T05:29:12;15.30;60.80
71563;DHT22;59391;52.504;13.438;2023-06-01T05:31:38;15.30;60.90
71563;DHT22;59391;52.504;13.438;2023-06-01T05:34:03;15.20;60.90
71563;DHT22;59391;52.504;13.438;2023-06-01T05:36:29;15.20;60.80
71563;DHT22;59391;52.504;13.438;2023-06-01T05:38:57;15.20;60.80
71563;DHT22;59391;52.504;13.438;2023-06-01T05:41:23;15.20;60.50
71563;DHT22;59391;52.504;13.438;2023-06-01T05:43:49;15.20;60.60
71563;DHT22;59391;52.504;13.438;2023-06-01T05:46:16;15.10;60.70
71563;DHT22;59391;52.504;13.438;2023-06-01T05:48:46;15.10;60.90
71563;DHT22;59391;52.504;13.438;2023-06-01T05:51:14;15.10;60.90
71563;DHT22;59391;52.504;13.438;2023-06-01T05:53:41;15.10;60.80
71563;DHT22;59391;52.504;13.438;2023-06-01T05:56:06;15.10;60.90
71563;DHT22;59391;52.504;13.438;2023-06-01T05:58:32;15.10;60.90
71563;DHT22;59391;52.504;13.438;2023-06-01T06:00:58;15.20;60.40
71563;DHT22;59391;52.504;13.438;2023-06-01T06:03:23;15.20;59.90
71563;DHT22;59391;52.504;13.438;2023-06-01T06:05:49;15.20;59.80
71563;DHT22;59391;52.504;13.438;2023-06-01T06:08:15;15.30;59.70
71563;DHT22;59391;52.504;13.438;2023-06-01T06:10:40;15.30;59.30
71563;DHT22;59391;52.504;13.438;2023-06-01T06:13:06;15.30;59.10
71563;DHT22;59391;52.504;13.438;2023-06-01T06:15:32;15.30;58.70
71563;DHT22;59391;52.504;13.438;2023-06-01T06:17:58;15.40;58.20
71563;DHT22;59391;52.504;13.438;2023-06-01T06:20:23;15.40;57.80
71563;DHT22;59391;52.504;13.438;2023-06-01T06:22:50;15.40;57.60
71563;DHT22;59391;52.504;13.438;2023-06-01T06:25:17;15.40;57.30
71563;DHT22;59391;52.504;13.438;2023-06-01T06:27:43;15.40;57.40
71563;DHT22;59391;52.504;13.438;2023-06-01T06:30:09;15.40;57.40
71563;DHT22;59391;52.504;13.438;2023-06-01T06:32:34;15.40;57.40
71563;DHT22;59391;52.504;13.438;2023-06-01T06:35:00;15.50;57.10
71563;DHT22;59391;52.504;13.438;2023-06-01T06:37:28;15.50;56.80
71563;DHT22;59391;52.504;13.438;2023-06-01T06:39:55;15.50;57.00
71563;DHT22;59391;52.504;13.438;2023-06-01T06:42:20;15.50;57.10
71563;DHT22;59391;52.504;13.438;2023-06-01T06:44:46;15.50;56.40
71563;DHT22;59391;52.504;13.438;2023-06-01T06:47:11;15.50;56.30
71563;DHT22;59391;52.504;13.438;2023-06-01T06:49:44;15.50;55.90
71563;DHT22;59391;52.504;13.438;2023-06-01T06:52:10;15.50;55.80
71563;DHT22;59391;52.504;13.438;2023-06-01T06:54:38;15.50;55.80
71563;DHT22;59391;52.504;13.438;2023-06-01T06:57:04;15.60;55.50
71563;DHT22;59391;52.504;13.438;2023-06-01T06:59:30;15.60;55.50
71563;DHT22;59391;52.504;13.438;2023-06-01T07:01:56;15.60;55.20
71563;DHT22;59391;52.504;13.438;2023-06-01T07:04:22;15.60;54.90
71563;DHT22;59391;52.504;13.438;2023-06-01T07:06:48;15.60;55.00
71563;DHT22;59391;52.504;13.438;2023-06-01T07:09:13;15.60;55.30
71563;DHT22;59391;52.504;13.438;2023-06-01T07:11:42;15.60;55.10
71563;DHT22;59391;52.504;13.438;2023-06-01T07:14:14;15.60;55.00
71563;DHT22;59391;52.504;13.438;2023-06-01T07:16:40;15.60;55.20
71563;DHT22;59391;52.504;13.438;2023-06-01T07:19:08;15.70;54.90
71563;DHT22;59391;52.504;13.438;2023-06-01T07:21:34;15.70;55.00
71563;DHT22;59391;52.504;13.438;2023-06-01T07:24:01;15.80;54.70
71563;DHT22;59391;52.504;13.438;2023-06-01T07:26:27;15.90;54.40
71563;DHT22;59391;52.504;13.438;2023-06-01T07:28:55;15.90;54.30
71563;DHT22;59391;52.504;13.438;2023-06-01T07:31:22;15.90;54.00
71563;DHT22;59391;52.504;13.438;2023-06-01T07:33:48;15.90;53.60
71563;DHT22;59391;52.504;13.438;2023-06-01T07:36:14;15.90;53.30
71563;DHT22;59391;52.504;13.438;2023-06-01T07:38:43;15.90;53.60
71563;DHT22;59391;52.504;13.438;2023-06-01T07:41:09;15.90;53.50
71563;DHT22;59391;52.504;13.438;2023-06-01T07:43:37;15.90;53.40
71563;DHT22;59391;52.504;13.438;2023-06-01T07:46:03;15.90;53.60
71563;DHT22;59391;52.504;13.438;2023-06-01T07:48:29;15.90;54.10
71563;DHT22;59391;52.504;13.438;2023-06-01T07:51:01;15.80;54.20
71563;DHT22;59391;52.504;13.438;2023-06-01T07:53:31;15.90;53.60
71563;DHT22;59391;52.504;13.438;2023-06-01T07:55:57;15.80;53.50
71563;DHT22;59391;52.504;13.438;2023-06-01T07:58:23;15.90;53.50
71563;DHT22;59391;52.504;13.438;2023-06-01T08:00:48;15.90;53.40
71563;DHT22;59391;52.504;13.438;2023-06-01T08:03:15;15.90;53.40
71563;DHT22;59391;52.504;13.438;2023-06-01T08:05:41;15.90;53.60
71563;DHT22;59391;52.504;13.438;2023-06-01T08:08:10;16.00;53.80
71563;DHT22;59391;52.504;13.438;2023-06-01T08:10:36;16.10;53.80
71563;DHT22;59391;52.504;13.438;2023-06-01T08:13:04;16.10;53.20
71563;DHT22;59391;52.504;13.438;2023-06-01T08:15:32;16.20;52.80
71563;DHT22;59391;52.504;13.438;2023-06-01T08:17:59;16.30;52.60
71563;DHT22;59391;52.504;13.438;2023-06-01T08:20:25;16.30;52.20
71563;DHT22;59391;52.504;13.438;2023-06-01T08:22:52;16.40;51.70
71563;DHT22;59391;52.504;13.438;2023-06-01T08:25:18;16.50;52.10
71563;DHT22;59391;52.504;13.438;2023-06-01T08:27:44;16.50;51.70
71563;DHT22;59391;52.504;13.438;2023-06-01T08:30:10;16.60;51.00
71563;DHT22;59391;52.504;13.438;2023-06-01T08:32:36;16.70;51.00
71563;DHT22;59391;52.504;13.438;2023-06-01T08:35:03;16.80;51.00
71563;DHT22;59391;52.504;13.438;2023-06-01T08:37:29;16.90;50.90
71563;DHT22;59391;52.504;13.438;2023-06-01T08:39:55;17.00;50.80
71563;DHT22;59391;52.504;13.438;2023-06-01T08:45:40;17.30;50.40
71563;DHT22;59391;52.504;13.438;2023-06-01T08:48:08;17.50;50.20
71563;DHT22;59391;52.504;13.438;2023-06-01T08:50:34;17.60;49.80
71563;DHT22;59391;52.504;13.438;2023-06-01T08:53:01;17.80;49.20
71563;DHT22;59391;52.504;13.438;2023-06-01T08:55:29;17.90;49.10
71563;DHT22;59391;52.504;13.438;2023-06-01T08:57:55;18.10;48.40
71563;DHT22;59391;52.504;13.438;2023-06-01T09:00:21;18.40;48.30
71563;DHT22;59391;52.504;13.438;2023-06-01T09:02:48;18.60;47.80
71563;DHT22;59391;52.504;13.438;2023-06-01T09:05:14;18.90;47.20
71563;DHT22;59391;52.504;13.438;2023-06-01T09:07:40;19.20;46.40
71563;DHT22;59391;52.504;13.438;2023-06-01T09:10:06;19.50;46.20
71563;DHT22;59391;52.504;13.438;2023-06-01T09:12:32;19.80;45.50
71563;DHT22;59391;52.504;13.438;2023-06-01T09:15:12;20.10;45.10
71563;DHT22;59391;52.504;13.438;2023-06-01T09:17:43;20.40;44.70
71563;DHT22;59391;52.504;13.438;2023-06-01T09:20:28;20.80;43.00
71563;DHT22;59391;52.504;13.438;2023-06-01T09:22:54;21.00;43.20
71563;DHT22;59391;52.504;13.438;2023-06-01T09:25:28;21.30;42.70
71563;DHT22;59391;52.504;13.438;2023-06-01T09:27:58;21.50;41.60
71563;DHT22;59391;52.504;13.438;2023-06-01T09:30:36;21.70;41.50
71563;DHT22;59391;52.504;13.438;2023-06-01T09:33:10;21.80;41.30
71563;DHT22;59391;52.504;13.438;2023-06-01T09:35:48;21.90;40.90
71563;DHT22;59391;52.504;13.438;2023-06-01T09:38:25;22.10;40.60
71563;DHT22;59391;52.504;13.438;2023-06-01T09:41:01;22.20;40.60
71563;DHT22;59391;52.504;13.438;2023-06-01T09:43:28;22.30;39.80
71563;DHT22;59391;52.504;13.438;2023-06-01T09:46:08;22.30;39.50
71563;DHT22;59391;52.504;13.438;2023-06-01T09:48:35;22.40;39.60
71563;DHT22;59391;52.504;13.438;2023-06-01T09:51:02;22.40;39.70
71563;DHT22;59391;52.504;13.438;2023-06-01T09:53:27;22.50;39.50
71563;DHT22;59391;52.504;13.438;2023-06-01T09:56:00;22.70;39.50
71563;DHT22;59391;52.504;13.438;2023-06-01T09:58:28;22.90;38.70
71563;DHT22;59391;52.504;13.438;2023-06-01T10:00:54;23.00;38.40
71563;DHT22;59391;52.504;13.438;2023-06-01T10:03:21;23.10;37.70
71563;DHT22;59391;52.504;13.438;2023-06-01T10:05:48;23.20;37.80
71563;DHT22;59391;52.504;13.438;2023-06-01T10:08:16;23.30;37.90
71563;DHT22;59391;52.504;13.438;2023-06-01T10:10:45;23.40;37.90
71563;DHT22;59391;52.504;13.438;2023-06-01T10:13:13;23.60;37.20
71563;DHT22;59391;52.504;13.438;2023-06-01T10:15:39;23.70;36.80
71563;DHT22;59391;52.504;13.438;2023-06-01T10:18:06;23.70;37.10
71563;DHT22;59391;52.504;13.438;2023-06-01T10:20:33;23.80;37.10
71563;DHT22;59391;52.504;13.438;2023-06-01T10:23:00;23.90;36.80
71563;DHT22;59391;52.504;13.438;2023-06-01T10:25:31;24.00;36.90
71563;DHT22;59391;52.504;13.438;2023-06-01T10:28:06;24.00;37.10
71563;DHT22;59391;52.504;13.438;2023-06-01T10:30:34;24.10;36.90
71563;DHT22;59391;52.504;13.438;2023-06-01T10:33:00;24.20;36.00
71563;DHT22;59391;52.504;13.438;2023-06-01T10:40:39;24.60;35.80
71563;DHT22;59391;52.504;13.438;2023-06-01T10:43:05;24.70;35.90
71563;DHT22;59391;52.504;13.438;2023-06-01T10:48:03;24.90;35.00
71563;DHT22;59391;52.504;13.438;2023-06-01T10:50:31;24.90;35.50
71563;DHT22;59391;52.504;13.438;2023-06-01T10:53:24;25.00;35.60
71563;DHT22;59391;52.504;13.438;2023-06-01T10:56:23;25.10;35.60
71563;DHT22;59391;52.504;13.438;2023-06-01T11:01:45;25.40;35.60
71563;DHT22;59391;52.504;13.438;2023-06-01T11:04:13;25.60;35.10
71563;DHT22;59391;52.504;13.438;2023-06-01T11:06:40;25.70;34.70
71563;DHT22;59391;52.504;13.438;2023-06-01T11:09:09;25.90;35.30
71563;DHT22;59391;52.504;13.438;2023-06-01T11:14:19;26.30;33.50
71563;DHT22;59391;52.504;13.438;2023-06-01T11:16:46;26.40;33.40
71563;DHT22;59391;52.504;13.438;2023-06-01T11:19:20;26.50;33.00
71563;DHT22;59391;52.504;13.438;2023-06-01T11:21:55;26.60;33.10
71563;DHT22;59391;52.504;13.438;2023-06-01T11:24:32;26.70;32.30
71563;DHT22;59391;52.504;13.438;2023-06-01T11:27:01;26.90;32.70
71563;DHT22;59391;52.504;13.438;2023-06-01T11:29:37;27.00;32.90
71563;DHT22;59391;52.504;13.438;2023-06-01T11:32:14;27.10;32.50
71563;DHT22;59391;52.504;13.438;2023-06-01T11:34:41;27.30;31.80
71563;DHT22;59391;52.504;13.438;2023-06-01T11:37:15;27.30;31.80
71563;DHT22;59391;52.504;13.438;2023-06-01T11:39:43;27.40;31.50
71563;DHT22;59391;52.504;13.438;2023-06-01T11:42:19;27.60;31.70
71563;DHT22;59391;52.504;13.438;2023-06-01T11:44:55;27.60;31.40
71563;DHT22;59391;52.504;13.438;2023-06-01T11:47:27;27.80;31.20
71563;DHT22;59391;52.504;13.438;2023-06-01T11:49:55;27.90;31.20
71563;DHT22;59391;52.504;13.438;2023-06-01T11:52:21;28.00;31.50
71563;DHT22;59391;52.504;13.438;2023-06-01T11:54:47;28.20;31.80
71563;DHT22;59391;52.504;13.438;2023-06-01T11:57:14;28.30;31.40
71563;DHT22;59391;52.504;13.438;2023-06-01T11:59:46;28.40;30.80
71563;DHT22;59391;52.504;13.438;2023-06-01T12:02:24;28.50;30.50
71563;DHT22;59391;52.504;13.438;2023-06-01T12:05:03;28.50;30.60
71563;DHT22;59391;52.504;13.438;2023-06-01T12:07:46;28.50;30.70
71563;DHT22;59391;52.504;13.438;2023-06-01T12:10:15;28.50;30.60
71563;DHT22;59391;52.504;13.438;2023-06-01T12:12:45;28.40;30.80
71563;DHT22;59391;52.504;13.438;2023-06-01T12:15:14;28.40;31.20
71563;DHT22;59391;52.504;13.438;2023-06-01T12:17:54;28.40;30.60
71563;DHT22;59391;52.504;13.438;2023-06-01T12:20:36;28.30;30.60
71563;DHT22;59391;52.504;13.438;2023-06-01T12:23:16;28.10;30.40
71563;DHT22;59391;52.504;13.438;2023-06-01T12:25:53;27.90;30.80
71563;DHT22;59391;52.504;13.438;2023-06-01T12:28:21;27.80;30.80
71563;DHT22;59391;52.504;13.438;2023-06-01T12:30:48;27.60;31.20
71563;DHT22;59391;52.504;13.438;2023-06-01T12:33:34;27.50;31.10
71563;DHT22;59391;52.504;13.438;2023-06-01T12:36:05;27.40;31.70
71563;DHT22;59391;52.504;13.438;2023-06-01T12:38:35;27.40;31.40
71563;DHT22;59391;52.504;13.438;2023-06-01T12:41:10;27.40;31.30
71563;DHT22;59391;52.504;13.438;2023-06-01T12:43:37;27.40;31.30
71563;DHT22;59391;52.504;13.438;2023-06-01T12:46:05;27.40;31.40
71563;DHT22;59391;52.504;13.438;2023-06-01T12:48:36;27.50;31.40
71563;DHT22;59391;52.504;13.438;2023-06-01T12:51:04;27.60;31.10
71563;DHT22;59391;52.504;13.438;2023-06-01T12:53:30;27.80;30.90
71563;DHT22;59391;52.504;13.438;2023-06-01T12:56:02;28.00;30.90
71563;DHT22;59391;52.504;13.438;2023-06-01T12:58:28;28.10;30.00
71563;DHT22;59391;52.504;13.438;2023-06-01T13:00:54;28.20;30.20
71563;DHT22;59391;52.504;13.438;2023-06-01T13:03:19;28.20;30.20
71563;DHT22;59391;52.504;13.438;2023-06-01T13:05:47;28.20;29.90
71563;DHT22;59391;52.504;13.438;2023-06-01T13:08:15;28.10;29.60
71563;DHT22;59391;52.504;13.438;2023-06-01T13:10:41;28.10;29.90
71563;DHT22;59391;52.504;13.438;2023-06-01T13:13:08;27.90;30.20
71563;DHT22;59391;52.504;13.438;2023-06-01T13:15:35;27.80;30.60
71563;DHT22;59391;52.504;13.438;2023-06-01T13:18:01;27.70;30.40
71563;DHT22;59391;52.504;13.438;2023-06-01T13:20:27;27.50;30.80
71563;DHT22;59391;52.504;13.438;2023-06-01T13:22:55;27.40;30.80
71563;DHT22;59391;52.504;13.438;2023-06-01T13:25:21;27.30;31.20
71563;DHT22;59391;52.504;13.438;2023-06-01T13:27:47;27.10;31.10
71563;DHT22;59391;52.504;13.438;2023-06-01T13:30:13;27.00;30.80
71563;DHT22;59391;52.504;13.438;2023-06-01T13:32:39;26.90;31.10
71563;DHT22;59391;52.504;13.438;2023-06-01T13:35:07;26.80;31.70
71563;DHT22;59391;52.504;13.438;2023-06-01T13:37:33;26.70;30.90
71563;DHT22;59391;52.504;13.438;2023-06-01T13:40:01;26.60;31.20
71563;DHT22;59391;52.504;13.438;2023-06-01T13:42:28;26.50;31.50
71563;DHT22;59391;52.504;13.438;2023-06-01T13:44:53;26.30;31.50
71563;DHT22;59391;52.504;13.438;2023-06-01T13:47:20;26.20;32.10
71563;DHT22;59391;52.504;13.438;2023-06-01T13:49:49;26.10;32.70
71563;DHT22;59391;52.504;13.438;2023-06-01T13:52:14;26.00;32.30
71563;DHT22;59391;52.504;13.438;2023-06-01T13:54:40;26.00;32.20
71563;DHT22;59391;52.504;13.438;2023-06-01T13:57:07;26.00;32.80
71563;DHT22;59391;52.504;13.438;2023-06-01T13:59:33;26.00;32.20
71563;DHT22;59391;52.504;13.438;2023-06-01T14:02:04;25.90;32.40
71563;DHT22;59391;52.504;13.438;2023-06-01T14:04:30;25.90;32.70
71563;DHT22;59391;52.504;13.438;2023-06-01T14:06:59;25.90;32.70
71563;DHT22;59391;52.504;13.438;2023-06-01T14:09:28;25.90;32.90
71563;DHT22;59391;52.504;13.438;2023-06-01T14:11:54;25.90;33.00
71563;DHT22;59391;52.504;13.438;2023-06-01T14:14:20;25.90;32.90
71563;DHT22;59391;52.504;13.438;2023-06-01T14:16:45;25.90;32.80
71563;DHT22;59391;52.504;13.438;2023-06-01T14:19:11;25.90;32.60
71563;DHT22;59391;52.504;13.438;2023-06-01T14:21:37;25.90;32.00
71563;DHT22;59391;52.504;13.438;2023-06-01T14:24:03;25.90;32.20
71563;DHT22;59391;52.504;13.438;2023-06-01T14:26:29;26.00;32.90
71563;DHT22;59391;52.504;13.438;2023-06-01T14:28:55;26.00;32.70
71563;DHT22;59391;52.504;13.438;2023-06-01T14:31:21;26.00;32.70
71563;DHT22;59391;52.504;13.438;2023-06-01T14:33:47;26.00;32.80
71563;DHT22;59391;52.504;13.438;2023-06-01T14:36:16;26.00;32.50
71563;DHT22;59391;52.504;13.438;2023-06-01T14:38:41;26.00;32.50
71563;DHT22;59391;52.504;13.438;2023-06-01T14:41:08;26.00;32.60
71563;DHT22;59391;52.504;13.438;2023-06-01T14:43:33;26.00;32.20
71563;DHT22;59391;52.504;13.438;2023-06-01T14:45:59;26.00;32.20
71563;DHT22;59391;52.504;13.438;2023-06-01T14:48:25;26.00;32.50
71563;DHT22;59391;52.504;13.438;2023-06-01T14:50:51;26.00;32.80
71563;DHT22;59391;52.504;13.438;2023-06-01T14:53:17;26.00;32.30
71563;DHT22;59391;52.504;13.438;2023-06-01T14:55:43;26.00;31.90
71563;DHT22;59391;52.504;13.438;2023-06-01T14:58:09;25.90;32.50
71563;DHT22;59391;52.504;13.438;2023-06-01T15:00:36;25.90;32.50
71563;DHT22;59391;52.504;13.438;2023-06-01T15:03:03;25.90;33.10
71563;DHT22;59391;52.504;13.438;2023-06-01T15:05:31;25.90;32.90
71563;DHT22;59391;52.504;13.438;2023-06-01T15:07:57;25.90;33.30
71563;DHT22;59391;52.504;13.438;2023-06-01T15:10:22;26.00;32.60
71563;DHT22;59391;52.504;13.438;2023-06-01T15:12:48;26.00;32.60
71563;DHT22;59391;52.504;13.438;2023-06-01T15:15:17;26.00;32.60
71563;DHT22;59391;52.504;13.438;2023-06-01T15:17:45;26.00;32.00
71563;DHT22;59391;52.504;13.438;2023-06-01T15:20:11;26.00;31.90
71563;DHT22;59391;52.504;13.438;2023-06-01T15:22:36;26.10;32.00
71563;DHT22;59391;52.504;13.438;2023-06-01T15:25:02;26.10;31.90
71563;DHT22;59391;52.504;13.438;2023-06-01T15:27:31;26.10;31.80
71563;DHT22;59391;52.504;13.438;2023-06-01T15:29:57;26.20;32.10
71563;DHT22;59391;52.504;13.438;2023-06-01T15:32:22;26.20;32.10
71563;DHT22;59391;52.504;13.438;2023-06-01T15:34:48;26.30;32.00
71563;DHT22;59391;52.504;13.438;2023-06-01T15:37:13;26.20;32.20
71563;DHT22;59391;52.504;13.438;2023-06-01T15:39:42;26.20;32.20
71563;DHT22;59391;52.504;13.438;2023-06-01T15:42:09;26.20;32.10
71563;DHT22;59391;52.504;13.438;2023-06-01T15:44:42;26.10;32.30
71563;DHT22;59391;52.504;13.438;2023-06-01T15:47:10;26.10;32.50